Time;durP1;ratioP1;P1;durP2;ratioP2;P2;SDS_P1;SDS_P2;PMS_P1;PMS_P2;Temp;Humidity;BMP_temperature;BMP_pressure;BME280_temperature;BME280_humidity;BME280_pressure;Samples;Min_cycle;Max_cycle;Signal;HPM_P1;HPM_P2
2023/01/25 00:00:06;;;;;;;23.70;11.80;;;;;;;0.15;100.00;100199.63;4533219;31;20106;-71
2023/01/25 00:02:33;;;;;;;28.65;11.12;;;;;;;0.24;100.00;100201.12;4533079;31;20106;-71
2023/01/25 00:05:00;;;;;;;27.73;12.00;;;;;;;0.16;100.00;100206.47;4533157;31;20078;-71
2023/01/25 00:07:27;;;;;;;26.92;12.37;;;;;;;0.18;100.00;100196.13;4533035;31;20122;-71
2023/01/25 00:09:55;;;;;;;32.17;12.95;;;;;;;0.20;100.00;100201.25;4533138;31;20167;-71
2023/01/25 00:12:22;;;;;;;28.60;12.52;;;;;;;0.14;100.00;100197.94;4532897;31;20530;-71
2023/01/25 00:14:49;;;;;;;28.70;11.23;;;;;;;0.21;100.00;100197.78;4533159;31;20113;-71
2023/01/25 00:17:17;;;;;;;28.90;12.65;;;;;;;0.27;100.00;100213.09;4533072;31;20117;-71
2023/01/25 00:19:44;;;;;;;31.42;12.43;;;;;;;0.51;100.00;100206.50;4533242;31;20438;-71
2023/01/25 00:22:11;;;;;;;26.67;12.50;;;;;;;0.64;100.00;100209.66;4532927;31;20091;-71
2023/01/25 00:24:38;;;;;;;26.15;12.48;;;;;;;0.76;100.00;100211.91;4533102;31;20579;-71
2023/01/25 00:27:05;;;;;;;31.20;13.00;;;;;;;0.82;100.00;100206.59;4533027;31;20110;-71
2023/01/25 00:29:33;;;;;;;28.08;13.15;;;;;;;0.95;100.00;100207.09;4533000;31;20537;-71
2023/01/25 00:32:02;;;;;;;26.17;11.55;;;;;;;1.05;100.00;100210.28;4532934;31;20087;-71
2023/01/25 00:34:46;;;;;;;27.98;11.85;;;;;;;1.12;100.00;100213.53;4532983;31;20083;-71
2023/01/25 00:37:27;;;;;;;24.52;11.20;;;;;;;1.15;100.00;100218.62;4532938;31;20071;-71
2023/01/25 00:39:56;;;;;;;24.83;11.23;;;;;;;1.14;100.00;100228.13;4533157;31;20106;-71
2023/01/25 00:42:23;;;;;;;20.75;9.85;;;;;;;1.16;100.00;100225.50;4532366;31;20117;-71
2023/01/25 00:44:51;;;;;;;23.67;10.38;;;;;;;1.13;100.00;100225.56;4532416;31;20111;-71
2023/01/25 00:47:19;;;;;;;22.33;10.68;;;;;;;1.16;100.00;100220.31;4533010;31;20122;-71
2023/01/25 00:49:46;;;;;;;25.62;10.50;;;;;;;1.19;100.00;100223.66;4532982;31;20159;-71
2023/01/25 00:52:14;;;;;;;24.42;11.55;;;;;;;1.13;100.00;100215.25;4532767;31;20117;-71
2023/01/25 00:54:41;;;;;;;27.95;12.52;;;;;;;1.10;100.00;100212.75;4532976;31;20103;-71
2023/01/25 00:57:09;;;;;;;29.12;12.95;;;;;;;0.99;100.00;100218.22;4532745;31;20162;-71
2023/01/25 00:59:36;;;;;;;33.20;15.70;;;;;;;0.86;100.00;100217.66;4531850;31;20125;-71
2023/01/25 01:02:03;;;;;;;33.95;15.98;;;;;;;0.65;100.00;100222.50;4532715;31;20095;-71
2023/01/25 01:04:31;;;;;;;38.20;16.42;;;;;;;0.64;100.00;100219.97;4532876;31;20177;-71
2023/01/25 01:06:58;;;;;;;39.35;15.25;;;;;;;0.63;100.00;100220.84;4532627;31;20151;-71
2023/01/25 01:09:25;;;;;;;32.83;14.80;;;;;;;0.57;100.00;100219.25;4532910;31;20511;-71
2023/01/25 01:11:53;;;;;;;35.90;15.60;;;;;;;0.57;100.00;100228.72;4532839;31;20107;-71
2023/01/25 01:14:21;;;;;;;35.80;14.30;;;;;;;0.70;100.00;100222.38;4518622;31;20086;-71
2023/01/25 01:16:49;;;;;;;39.65;15.50;;;;;;;0.74;100.00;100220.56;4532691;31;20087;-71
2023/01/25 01:19:17;;;;;;;34.35;14.38;;;;;;;0.79;100.00;100224.72;4532638;31;20150;-71
2023/01/25 01:21:45;;;;;;;28.50;13.18;;;;;;;0.78;100.00;100229.94;4532857;31;20095;-71
2023/01/25 01:24:12;;;;;;;34.63;14.45;;;;;;;0.80;100.00;100223.84;4532699;31;20105;-71
2023/01/25 01:26:39;;;;;;;28.38;13.02;;;;;;;0.82;100.00;100216.91;4532534;31;20457;-71
2023/01/25 01:29:07;;;;;;;33.05;12.93;;;;;;;0.87;100.00;100219.38;4532616;31;20754;-71
2023/01/25 01:31:34;;;;;;;29.77;12.65;;;;;;;0.86;100.00;100227.97;4532810;31;20087;-71
2023/01/25 01:34:02;;;;;;;30.45;13.27;;;;;;;0.87;100.00;100224.53;4532850;31;20167;-71
2023/01/25 01:36:31;;;;;;;33.08;13.52;;;;;;;0.87;100.00;100229.69;4532614;31;20146;-71
2023/01/25 01:39:00;;;;;;;29.15;12.18;;;;;;;0.90;100.00;100231.34;4532377;31;20096;-71
2023/01/25 01:41:28;;;;;;;30.10;12.50;;;;;;;0.83;100.00;100228.94;4532585;31;20113;-71
2023/01/25 01:43:56;;;;;;;34.78;11.90;;;;;;;0.79;100.00;100226.44;4532104;31;20095;-71
2023/01/25 01:46:24;;;;;;;26.12;11.77;;;;;;;0.84;100.00;100228.03;4532527;31;20103;-71
2023/01/25 01:49:10;;;;;;;22.85;10.63;;;;;;;0.84;100.00;100224.59;4531103;31;20568;-71
2023/01/25 01:51:37;;;;;;;34.05;11.70;;;;;;;0.92;100.00;100219.25;4531020;31;20094;-71
2023/01/25 01:54:28;;;;;;;25.60;10.85;;;;;;;1.03;100.00;100217.22;4532080;31;20130;-71
2023/01/25 01:57:17;;;;;;;26.95;10.85;;;;;;;1.00;100.00;100222.47;4532469;31;20512;-71
2023/01/25 01:59:55;;;;;;;26.20;11.27;;;;;;;1.05;100.00;100225.78;4531173;31;20146;-71
2023/01/25 02:02:24;;;;;;;25.75;10.52;;;;;;;1.01;100.00;100225.00;4532115;31;20082;-71
2023/01/25 02:04:55;;;;;;;25.77;10.82;;;;;;;1.09;100.00;100213.63;4530827;31;20432;-71
2023/01/25 02:07:31;;;;;;;28.38;10.43;;;;;;;1.13;100.00;100216.09;4532190;31;20162;-71
2023/01/25 02:10:04;;;;;;;18.83;7.80;;;;;;;1.07;100.00;100218.84;4531994;31;20482;-71
2023/01/25 02:12:32;;;;;;;12.40;6.62;;;;;;;1.16;100.00;100210.84;4531902;31;20154;-71
2023/01/25 02:14:59;;;;;;;18.75;8.68;;;;;;;1.27;100.00;100214.88;4532115;31;20078;-71
2023/01/25 02:17:31;;;;;;;19.62;8.25;;;;;;;1.38;100.00;100205.09;4531806;31;20111;-71
2023/01/25 02:20:21;;;;;;;23.90;8.50;;;;;;;1.41;100.00;100198.09;4517711;31;20146;-71
2023/01/25 02:22:51;;;;;;;20.50;8.23;;;;;;;1.37;100.00;100195.66;4531798;31;20515;-71
2023/01/25 02:25:18;;;;;;;23.67;9.20;;;;;;;1.46;100.00;100197.13;4531902;31;20102;-71
2023/01/25 02:28:07;;;;;;;21.33;8.85;;;;;;;1.44;100.00;100194.59;4531943;31;20129;-71
2023/01/25 02:30:35;;;;;;;22.45;9.52;;;;;;;1.33;100.00;100192.31;4531945;31;20444;-71
2023/01/25 02:33:02;;;;;;;23.95;10.57;;;;;;;1.18;100.00;100193.59;4531531;31;20087;-71
2023/01/25 02:35:46;;;;;;;23.08;10.13;;;;;;;1.06;100.00;100199.09;4531766;31;20182;-71
2023/01/25 02:38:14;;;;;;;;;;;;;;;0.99;100.00;100192.41;4531862;31;20103;-71
2023/01/25 02:40:45;;;;;;;19.55;8.40;;;;;;;1.03;100.00;100192.28;4531878;31;19971;-71
2023/01/25 02:43:16;;;;;;;20.90;8.35;;;;;;;1.01;100.00;100190.63;4530469;31;20122;-71
2023/01/25 02:45:47;;;;;;;20.52;8.50;;;;;;;0.95;100.00;100185.63;4531712;31;20630;-71
2023/01/25 02:48:14;;;;;;;18.67;8.23;;;;;;;0.97;100.00;100179.53;4530399;31;20109;-71
2023/01/25 02:50:41;;;;;;;23.25;9.93;;;;;;;0.95;100.00;100176.13;4531560;31;20143;-71
2023/01/25 02:53:10;;;;;;;21.65;9.23;;;;;;;0.97;100.00;100178.66;4531436;31;20099;-71
2023/01/25 02:55:37;;;;;;;18.65;8.38;;;;;;;0.90;100.00;100167.69;4531673;31;20178;-71
2023/01/25 02:58:07;;;;;;;21.75;8.18;;;;;;;0.95;100.00;100168.41;4531303;31;20435;-71
2023/01/25 03:00:34;;;;;;;23.23;9.30;;;;;;;0.98;100.00;100162.31;4531544;31;20099;-71
2023/01/25 03:03:02;;;;;;;21.25;9.18;;;;;;;0.92;100.00;100160.75;4531172;31;20122;-71
2023/01/25 03:05:30;;;;;;;19.92;8.13;;;;;;;0.87;100.00;100155.72;4531645;31;20106;-71
2023/01/25 03:07:57;;;;;;;20.02;8.30;;;;;;;0.93;100.00;100159.03;4533439;31;20082;-71
2023/01/25 03:10:25;;;;;;;18.20;7.82;;;;;;;0.91;100.00;100161.66;4533869;31;20103;-71
2023/01/25 03:12:54;;;;;;;24.77;8.85;;;;;;;0.93;100.00;100156.44;4533610;31;20112;-71
2023/01/25 03:15:22;;;;;;;20.65;8.98;;;;;;;0.96;100.00;100162.34;4533572;31;20427;-71
2023/01/25 03:17:49;;;;;;;20.02;8.60;;;;;;;0.99;100.00;100151.94;4533904;31;20099;-71
2023/01/25 03:20:17;;;;;;;18.37;7.87;;;;;;;1.02;100.00;100156.19;4533678;31;20519;-71
2023/01/25 03:22:44;;;;;;;18.02;8.68;;;;;;;0.97;100.00;100150.28;4533629;31;20143;-71
2023/01/25 03:25:12;;;;;;;22.02;8.13;;;;;;;0.97;100.00;100147.72;4533750;31;20114;-71
2023/01/25 03:27:41;;;;;;;18.98;8.32;;;;;;;0.92;100.00;100145.25;4533753;31;20087;-71
2023/01/25 03:30:09;;;;;;;25.40;8.48;;;;;;;0.82;100.00;100149.84;4533611;31;20428;-71
2023/01/25 03:32:37;;;;;;;19.37;8.23;;;;;;;0.83;100.00;100151.53;4533300;31;20460;-71
2023/01/25 03:35:05;;;;;;;20.20;9.27;;;;;;;0.83;100.00;100148.09;4533617;31;20220;-71
2023/01/25 03:37:33;;;;;;;20.33;7.87;;;;;;;0.66;100.00;100148.53;4533402;31;20138;-71
2023/01/25 03:40:02;;;;;;;22.62;9.02;;;;;;;0.69;100.00;100153.63;4533651;31;20087;-71
2023/01/25 03:42:30;;;;;;;23.83;8.93;;;;;;;0.68;100.00;100154.50;4533307;31;20523;-71
2023/01/25 03:44:57;;;;;;;21.50;8.15;;;;;;;0.63;100.00;100148.63;4533287;31;20479;-71
2023/01/25 03:47:25;;;;;;;24.23;8.80;;;;;;;0.68;100.00;100146.75;4533465;31;20155;-71
2023/01/25 03:49:52;;;;;;;23.48;8.73;;;;;;;0.62;100.00;100149.50;4533167;31;20088;-71
2023/01/25 03:52:19;;;;;;;19.40;9.75;;;;;;;0.59;100.00;100154.75;4533270;31;20108;-71
2023/01/25 03:54:53;;;;;;;25.62;9.38;;;;;;;0.53;100.00;100151.44;4533666;31;20087;-71
2023/01/25 03:57:20;;;;;;;23.33;9.27;;;;;;;0.52;100.00;100149.75;4533292;31;20095;-71
2023/01/25 03:59:47;;;;;;;21.27;8.18;;;;;;;0.54;100.00;100154.88;4533423;31;20130;-72
2023/01/25 04:02:15;;;;;;;23.85;8.95;;;;;;;0.39;100.00;100148.34;4533222;31;20087;-71
2023/01/25 04:04:42;;;;;;;27.15;10.38;;;;;;;0.43;100.00;100149.97;4533530;31;20079;-71
2023/01/25 04:07:10;;;;;;;26.30;9.98;;;;;;;0.41;100.00;100154.34;4533353;31;20107;-71
2023/01/25 04:09:38;;;;;;;23.33;9.15;;;;;;;0.28;100.00;100150.38;4533288;31;20519;-71
2023/01/25 04:12:05;;;;;;;20.45;8.43;;;;;;;0.33;100.00;100149.37;4533241;31;20110;-71
2023/01/25 04:14:33;;;;;;;21.05;9.13;;;;;;;0.31;100.00;100151.12;4533057;31;20113;-71
2023/01/25 04:17:12;;;;;;;26.85;8.55;;;;;;;0.35;100.00;100146.78;4518646;31;20476;-71
2023/01/25 04:19:40;;;;;;;17.02;7.87;;;;;;;0.33;100.00;100145.94;4533096;31;20436;-71
2023/01/25 04:22:08;;;;;;;19.58;7.95;;;;;;;0.37;100.00;100144.97;4533146;31;20780;-71
2023/01/25 04:24:36;;;;;;;18.48;7.97;;;;;;;0.39;100.00;100148.34;4533382;31;20154;-71
2023/01/25 04:27:04;;;;;;;23.48;9.00;;;;;;;0.46;100.00;100149.06;4533316;31;20082;-71
2023/01/25 04:29:31;;;;;;;16.45;7.97;;;;;;;0.44;100.00;100156.84;4533492;31;20095;-71
2023/01/25 04:32:08;;;;;;;17.40;7.10;;;;;;;0.42;100.00;100153.44;4533318;31;20151;-72
2023/01/25 04:34:36;;;;;;;19.60;8.05;;;;;;;0.41;100.00;100158.63;4533144;31;20147;-71
2023/01/25 04:37:03;;;;;;;18.77;7.87;;;;;;;0.36;100.00;100161.31;4533207;31;20516;-71
2023/01/25 04:39:32;;;;;;;19.20;8.40;;;;;;;0.49;100.00;100156.72;4533255;31;20126;-71
2023/01/25 04:41:59;;;;;;;26.95;9.82;;;;;;;0.53;100.00;100160.94;4533068;31;20095;-71
2023/01/25 04:44:26;;;;;;;19.23;8.23;;;;;;;0.45;100.00;100157.69;4533428;31;20118;-71
2023/01/25 04:46:54;;;;;;;24.08;8.57;;;;;;;0.43;100.00;100155.13;4533362;31;20463;-71
2023/01/25 04:49:21;;;;;;;17.60;7.78;;;;;;;0.52;100.00;100152.31;4533234;31;20234;-71
2023/01/25 04:51:48;;;;;;;22.00;8.48;;;;;;;0.51;100.00;100154.94;4533051;31;20118;-71
2023/01/25 04:54:16;;;;;;;21.02;8.73;;;;;;;0.56;100.00;100157.41;4532884;31;20146;-71
2023/01/25 04:56:43;;;;;;;21.30;8.55;;;;;;;0.53;100.00;100151.44;4533306;31;20091;-71
2023/01/25 04:59:10;;;;;;;19.67;7.53;;;;;;;0.58;100.00;100155.66;4532686;31;20155;-71
2023/01/25 05:01:38;;;;;;;21.98;8.55;;;;;;;0.60;100.00;100156.44;4533084;31;20099;-71
2023/01/25 05:04:05;;;;;;;17.87;7.37;;;;;;;0.69;100.00;100149.31;4532825;31;20129;-71
2023/01/25 05:06:33;;;;;;;21.60;8.55;;;;;;;0.79;100.00;100151.63;4533087;31;20418;-71
2023/01/25 05:09:01;;;;;;;18.67;8.55;;;;;;;0.85;100.00;100156.66;4530793;31;20103;-71
2023/01/25 05:11:28;;;;;;;30.98;8.80;;;;;;;0.87;100.00;100158.28;4501684;31;20156;-71
2023/01/25 05:13:58;;;;;;;20.50;7.22;;;;;;;0.91;100.00;100155.63;4528545;31;20104;-71
2023/01/25 05:16:26;;;;;;;22.13;9.35;;;;;;;0.97;100.00;100158.03;4532775;31;20448;-71
2023/01/25 05:18:54;;;;;;;24.10;9.32;;;;;;;1.03;100.00;100158.72;4532789;31;20151;-71
2023/01/25 05:24:11;;;;;;;21.77;8.25;;;;;;;0.98;100.00;100159.72;4533005;31;20448;-72
2023/01/25 05:29:36;;;;;;;20.40;8.73;;;;;;;0.91;100.00;100165.94;4531918;31;20468;-72
2023/01/25 05:32:05;;;;;;;23.77;9.93;;;;;;;0.90;100.00;100159.13;4532923;31;20099;-71
2023/01/25 05:34:33;;;;;;;23.12;9.02;;;;;;;0.97;100.00;100161.47;4532936;31;20118;-71
2023/01/25 05:37:02;;;;;;;20.50;8.70;;;;;;;0.85;100.00;100167.81;4532326;31;20131;-71
2023/01/25 05:39:30;;;;;;;24.40;9.55;;;;;;;0.91;100.00;100153.91;4532775;31;20210;-71
2023/01/25 05:41:58;;;;;;;28.38;9.75;;;;;;;0.96;100.00;100159.78;4532385;31;20150;-71
2023/01/25 05:44:26;;;;;;;23.87;9.40;;;;;;;0.86;100.00;100159.19;4532788;31;20158;-72
2023/01/25 05:46:53;;;;;;;23.85;8.63;;;;;;;0.98;100.00;100157.16;4532317;31;20106;-72
2023/01/25 05:49:21;;;;;;;20.83;8.98;;;;;;;0.87;100.00;100163.44;4515903;31;20159;-72
2023/01/25 05:51:48;;;;;;;22.37;10.20;;;;;;;0.97;100.00;100165.78;4516526;31;20092;-71
2023/01/25 05:54:18;;;;;;;20.25;9.75;;;;;;;0.86;100.00;100156.63;4515894;31;20487;-72
2023/01/25 05:56:48;;;;;;;26.60;10.52;;;;;;;0.85;100.00;100160.06;4515117;31;20104;-71
2023/01/25 05:59:16;;;;;;;24.12;9.18;;;;;;;0.85;100.00;100154.91;4515840;31;20123;-71
2023/01/25 06:01:45;;;;;;;20.98;9.70;;;;;;;0.84;100.00;100162.69;4529139;31;20095;-71
2023/01/25 06:04:17;;;;;;;18.98;8.88;;;;;;;0.77;100.00;100154.25;4532121;31;20095;-71
2023/01/25 06:06:44;;;;;;;21.87;9.10;;;;;;;0.64;100.00;100163.22;4532434;31;20435;-71
2023/01/25 06:09:12;;;;;;;23.20;9.32;;;;;;;0.69;100.00;100171.69;4524185;31;20196;-71
2023/01/25 06:11:43;;;;;;;20.08;8.38;;;;;;;0.62;100.00;100171.00;4516485;31;20099;-74
2023/01/25 06:14:10;;;;;;;21.80;9.77;;;;;;;0.75;100.00;100168.94;4518065;31;20131;-72
2023/01/25 06:16:38;;;;;;;22.02;9.35;;;;;;;0.74;100.00;100161.25;4521800;31;20091;-72
2023/01/25 06:19:07;;;;;;;19.27;9.02;;;;;;;0.82;100.00;100161.91;4520316;31;20534;-71
2023/01/25 06:21:35;;;;;;;23.48;9.02;;;;;;;0.77;100.00;100159.41;4506391;31;20100;-73
2023/01/25 06:24:04;;;;;;;19.73;8.52;;;;;;;0.87;100.00;100167.78;4519693;31;20092;-73
2023/01/25 06:26:31;;;;;;;24.37;9.85;;;;;;;0.91;100.00;100174.56;4515713;31;20111;-73
2023/01/25 06:28:58;;;;;;;22.30;8.80;;;;;;;0.86;100.00;100177.25;4517407;31;20432;-72
2023/01/25 06:31:25;;;;;;;19.98;8.68;;;;;;;0.94;100.00;100178.75;4515278;31;20119;-71
2023/01/25 06:33:53;;;;;;;21.40;8.43;;;;;;;0.83;100.00;100182.50;4516918;31;20122;-70
2023/01/25 06:36:21;;;;;;;20.37;9.35;;;;;;;0.97;100.00;100189.00;4515609;31;20540;-71
2023/01/25 06:38:49;;;;;;;19.95;8.48;;;;;;;0.93;100.00;100190.81;4516696;31;20870;-72
2023/01/25 06:41:18;;;;;;;23.60;8.80;;;;;;;0.97;100.00;100189.00;4512056;31;20091;-70
2023/01/25 06:43:46;;;;;;;27.35;9.95;;;;;;;1.04;100.00;100191.38;4530420;31;20095;-72
2023/01/25 06:46:14;;;;;;;21.95;9.35;;;;;;;1.07;100.00;100190.44;4522989;31;20111;-73
2023/01/25 06:48:41;;;;;;;20.48;9.77;;;;;;;1.07;100.00;100185.28;4524824;31;20133;-71
2023/01/25 06:51:11;;;;;;;25.45;11.23;;;;;;;1.13;100.00;100190.28;4521123;31;20140;-71
2023/01/25 06:53:40;;;;;;;27.45;10.20;;;;;;;1.14;100.00;100194.56;4515324;31;20166;-72
2023/01/25 06:56:12;;;;;;;21.15;9.05;;;;;;;1.06;100.00;100191.34;4528929;31;20231;-72
2023/01/25 06:58:40;;;;;;;24.77;9.15;;;;;;;1.20;100.00;100191.81;4529452;31;20100;-71
2023/01/25 07:01:18;;;;;;;22.13;8.63;;;;;;;1.13;100.00;100190.28;4512881;31;20190;-72
2023/01/25 07:03:47;;;;;;;24.20;8.48;;;;;;;1.10;100.00;100187.78;4520046;31;20092;-72
2023/01/25 07:06:14;;;;;;;22.08;9.10;;;;;;;0.99;100.00;100188.06;4523310;31;20515;-72
2023/01/25 07:08:42;;;;;;;27.25;9.73;;;;;;;1.14;100.00;100191.97;4520642;31;20119;-71
2023/01/25 07:11:12;;;;;;;20.52;9.25;;;;;;;1.12;100.00;100195.47;4514290;31;20126;-72
2023/01/25 07:13:40;;;;;;;23.25;9.38;;;;;;;1.18;100.00;100188.44;4516943;31;20857;-71
2023/01/25 07:16:14;;;;;;;23.70;9.88;;;;;;;1.22;100.00;100187.44;4518119;31;20080;-72
2023/01/25 07:18:42;;;;;;;24.50;9.95;;;;;;;1.26;100.00;100185.63;4520571;31;20134;-72
2023/01/25 07:21:15;;;;;;;20.75;9.27;;;;;;;1.32;100.00;100179.47;4527018;31;20119;-71
2023/01/25 07:23:42;;;;;;;26.90;11.50;;;;;;;1.47;100.00;100181.59;4518392;31;20385;-72
2023/01/25 07:26:17;;;;;;;25.45;11.27;;;;;;;1.58;100.00;100186.44;4519718;31;20087;-70
2023/01/25 07:28:45;;;;;;;22.80;9.55;;;;;;;1.59;100.00;100186.41;4530880;31;20095;-71
2023/01/25 07:31:14;;;;;;;20.92;10.18;;;;;;;1.47;100.00;100183.31;4516517;31;20444;-73
2023/01/25 07:33:41;;;;;;;24.35;9.50;;;;;;;1.48;100.00;100180.69;4514864;31;20126;-70
2023/01/25 07:36:09;;;;;;;22.95;10.35;;;;;;;1.37;100.00;100182.75;4518724;31;20104;-72
2023/01/25 07:38:37;;;;;;;22.67;10.35;;;;;;;1.41;100.00;100190.34;4515165;31;20164;-71
2023/01/25 07:41:04;;;;;;;28.55;10.30;;;;;;;1.50;100.00;100183.22;4528124;31;20103;-71
2023/01/25 07:43:32;;;;;;;26.37;10.77;;;;;;;1.57;100.00;100184.75;4525114;31;20130;-72
2023/01/25 07:46:12;;;;;;;24.33;9.63;;;;;;;1.57;100.00;100185.56;4521363;31;20088;-70
2023/01/25 07:48:43;;;;;;;24.37;10.88;;;;;;;1.73;100.00;100190.31;4520027;31;20122;-71
2023/01/25 07:51:11;;;;;;;20.05;8.80;;;;;;;1.67;100.00;100187.91;4509779;31;20598;-71
2023/01/25 07:53:42;;;;;;;26.35;10.15;;;;;;;1.83;100.00;100186.53;4520533;31;20151;-71
2023/01/25 07:56:11;;;;;;;24.20;10.75;;;;;;;2.02;100.00;100189.41;4517901;31;20456;-70
2023/01/25 07:58:39;;;;;;;23.23;10.10;;;;;;;2.06;100.00;100178.09;4527451;31;20087;-71
2023/01/25 08:01:07;;;;;;;21.33;10.18;;;;;;;2.09;100.00;100183.16;4520223;31;20127;-71
2023/01/25 08:03:34;;;;;;;23.70;10.07;;;;;;;2.01;100.00;100186.88;4519413;31;20100;-70
2023/01/25 08:06:05;;;;;;;30.17;10.93;;;;;;;1.89;100.00;100186.37;4531053;31;20492;-73
2023/01/25 08:08:34;;;;;;;23.05;10.50;;;;;;;1.85;100.00;100189.94;4518388;31;20151;-71
2023/01/25 08:11:25;;;;;;;23.77;10.77;;;;;;;1.83;100.00;100180.53;4520654;31;20154;-69
2023/01/25 08:13:52;;;;;;;19.37;8.30;;;;;;;2.06;100.00;100179.81;4516433;31;20088;-74
2023/01/25 08:16:22;;;;;;;20.20;8.57;;;;;;;1.91;100.00;100184.56;4517009;31;20155;-71
2023/01/25 08:18:53;;;;;;;24.67;8.82;;;;;;;1.81;100.00;100187.50;4520955;31;20501;-70
2023/01/25 08:21:28;;;;;;;21.08;8.77;;;;;;;1.77;100.00;100187.59;4526991;31;20091;-71
2023/01/25 08:23:57;;;;;;;22.67;9.80;;;;;;;1.77;100.00;100181.56;4521091;31;20163;-71
2023/01/25 08:26:26;;;;;;;23.50;11.27;;;;;;;1.93;100.00;100172.44;4528146;31;20146;-70
2023/01/25 08:28:53;;;;;;;32.67;13.88;;;;;;;2.16;100.00;100186.37;4516139;31;20096;-71
2023/01/25 08:31:27;;;;;;;20.70;9.00;;;;;;;2.25;100.00;100185.25;4512813;31;20115;-71
2023/01/25 08:33:58;;;;;;;19.02;9.20;;;;;;;2.07;100.00;100184.94;4519400;31;20121;-69
2023/01/25 08:36:26;;;;;;;30.70;10.88;;;;;;;2.03;100.00;100180.78;4518903;31;20463;-71
2023/01/25 08:38:56;;;;;;;18.33;8.55;;;;;;;2.06;100.00;100177.22;4513965;31;20091;-70
2023/01/25 08:41:24;;;;;;;19.67;8.85;;;;;;;2.15;100.00;100174.38;4522071;31;21061;-70
2023/01/25 08:43:53;;;;;;;22.52;8.98;;;;;;;2.08;100.00;100185.81;4519290;31;20532;-70
2023/01/25 08:46:23;;;;;;;24.67;8.90;;;;;;;2.15;100.00;100176.97;4528448;31;20163;-71
2023/01/25 08:48:54;;;;;;;21.27;8.73;;;;;;;2.43;100.00;100181.22;4517343;31;20111;-71
2023/01/25 08:51:23;;;;;;;18.58;8.73;;;;;;;2.44;100.00;100175.16;4517694;31;93585;-71
2023/01/25 08:53:50;;;;;;;25.42;10.02;;;;;;;2.80;100.00;100169.63;4518739;31;20117;-71
2023/01/25 08:56:18;;;;;;;24.25;9.70;;;;;;;2.80;100.00;100167.03;4521135;31;20136;-71
2023/01/25 08:58:46;;;;;;;21.08;9.68;;;;;;;2.94;100.00;100164.81;4518245;31;20609;-72
2023/01/25 09:01:15;;;;;;;20.65;9.15;;;;;;;3.13;100.00;100166.75;4522833;31;20134;-70
2023/01/25 09:03:45;;;;;;;23.48;9.88;;;;;;;3.15;100.00;100162.34;4519229;31;20150;-73
2023/01/25 09:06:13;;;;;;;20.40;9.15;;;;;;;3.14;100.00;100153.75;4518149;31;20096;-70
2023/01/25 09:08:41;;;;;;;22.33;8.43;;;;;;;3.00;100.00;100158.59;4513297;31;20128;-73
2023/01/25 09:11:10;;;;;;;21.12;9.27;;;;;;;2.99;100.00;100162.91;4529159;31;20117;-70
2023/01/25 09:13:42;;;;;;;18.02;9.25;;;;;;;3.12;100.00;100155.56;4522474;31;20087;-71
2023/01/25 09:16:14;;;;;;;24.77;9.93;;;;;;;3.06;100.00;100160.09;4518372;31;20479;-70
2023/01/25 09:18:43;;;;;;;24.77;9.63;;;;;;;2.83;100.00;100161.75;4521553;31;20133;-70
2023/01/25 09:21:15;;;;;;;21.85;9.18;;;;;;;3.08;100.00;100158.31;4521935;31;20103;-70
2023/01/25 09:23:47;;;;;;;24.50;9.20;;;;;;;3.15;100.00;100149.41;4529340;31;20485;-71
2023/01/25 09:26:35;;;;;;;19.33;9.73;;;;;;;3.11;100.00;100155.63;4521731;31;20113;-70
2023/01/25 09:29:04;;;;;;;26.75;10.73;;;;;;;2.90;100.00;100147.72;4522820;31;20096;-71
2023/01/25 09:31:31;;;;;;;23.87;10.02;;;;;;;2.95;100.00;100151.00;4521059;31;20475;-72
2023/01/25 09:33:59;;;;;;;23.50;9.75;;;;;;;2.97;100.00;100154.38;4522706;31;20114;-72
2023/01/25 09:36:26;;;;;;;27.52;9.10;;;;;;;2.95;100.00;100160.47;4521117;31;20106;-71
2023/01/25 09:38:54;;;;;;;24.15;9.88;;;;;;;2.96;100.00;100151.81;4519510;31;20114;-70
2023/01/25 09:41:43;;;;;;;21.87;9.60;;;;;;;3.04;100.00;100151.56;4521390;31;20111;-71
2023/01/25 09:44:28;;;;;;;21.58;9.07;;;;;;;2.96;100.00;100150.06;4525005;31;20181;-72
2023/01/25 09:46:58;;;;;;;29.37;9.43;;;;;;;2.97;100.00;100138.81;4500809;31;20087;-72
2023/01/25 09:49:55;;;;;;;20.77;8.63;;;;;;;2.92;100.00;100145.94;4516074;31;20448;-73
2023/01/25 09:52:49;;;;;;;25.37;10.50;;;;;;;2.91;100.00;100139.06;4509593;31;20158;-74
2023/01/25 09:55:18;;;;;;;20.92;9.05;;;;;;;2.77;100.00;100133.50;4516422;31;20523;-73
2023/01/25 09:57:46;;;;;;;21.55;9.55;;;;;;;2.88;100.00;100131.41;4509229;31;20111;-71
2023/01/25 10:00:18;;;;;;;20.12;9.27;;;;;;;3.14;100.00;100125.28;4518030;31;20091;-72
2023/01/25 10:02:51;;;;;;;22.55;9.10;;;;;;;3.19;100.00;100130.28;4501036;31;20498;-70
2023/01/25 10:05:21;;;;;;;20.10;8.87;;;;;;;3.27;100.00;100123.09;4516599;31;20106;-71
2023/01/25 10:08:06;;;;;;;19.33;8.15;;;;;;;3.35;100.00;100120.19;4519111;31;20130;-70
2023/01/25 10:10:39;;;;;;;20.75;9.18;;;;;;;3.43;100.00;100114.72;4524443;31;20118;-71
2023/01/25 10:13:15;;;;;;;21.70;8.93;;;;;;;3.26;100.00;100107.59;4511544;31;20091;-72
2023/01/25 10:15:47;;;;;;;20.33;8.35;;;;;;;3.31;100.00;100105.66;4517367;31;20500;-72
2023/01/25 10:18:29;;;;;;;31.75;9.68;;;;;;;3.16;100.00;100101.91;4530480;31;20127;-71
2023/01/25 10:21:03;;;;;;;30.48;9.85;;;;;;;3.18;100.00;100097.53;4523134;31;20249;-71
2023/01/25 10:23:52;;;;;;;21.33;9.68;;;;;;;3.22;100.00;100095.66;4523519;31;20178;-71
2023/01/25 10:26:29;;;;;;;22.37;9.63;;;;;;;3.32;100.00;100103.03;4527111;31;20111;-71
2023/01/25 10:29:09;;;;;;;19.75;9.65;;;;;;;3.41;100.00;100088.03;4503778;31;20155;-71
2023/01/25 10:31:45;;;;;;;21.48;9.63;;;;;;;3.55;100.00;100089.19;4520765;31;20175;-71
2023/01/25 10:34:19;;;;;;;29.20;10.93;;;;;;;3.47;100.00;100095.59;4532426;31;20087;-70
2023/01/25 10:36:53;;;;;;;26.50;9.75;;;;;;;3.38;100.00;100091.59;4519672;31;20091;-71
2023/01/25 10:39:21;;;;;;;23.00;10.23;;;;;;;3.55;100.00;100086.59;4518915;31;20529;-71
2023/01/25 10:41:52;;;;;;;21.40;8.90;;;;;;;3.55;100.00;100084.00;4519823;31;20159;-71
2023/01/25 10:44:26;;;;;;;21.15;9.70;;;;;;;3.44;100.00;100082.75;4522195;31;20151;-70
2023/01/25 10:47:19;;;;;;;29.17;9.65;;;;;;;3.35;100.00;100074.41;4511858;31;20108;-71
2023/01/25 10:49:56;;;;;;;20.15;8.88;;;;;;;3.32;100.00;100078.88;4521104;31;20117;-71
2023/01/25 10:52:26;;;;;;;27.85;10.73;;;;;;;3.43;100.00;100070.69;4523977;31;20094;-72
2023/01/25 10:55:16;;;;;;;20.95;9.90;;;;;;;3.53;100.00;100061.66;4522204;31;20117;-71
2023/01/25 10:57:50;;;;;;;26.20;10.20;;;;;;;3.31;100.00;100066.81;4517859;31;20095;-71
2023/01/25 11:00:35;;;;;;;25.95;11.18;;;;;;;3.45;100.00;100068.88;4517143;31;20539;-71
2023/01/25 11:03:03;;;;;;;28.55;11.93;;;;;;;3.64;100.00;100069.84;4519293;31;20448;-70
2023/01/25 11:05:38;;;;;;;23.90;10.45;;;;;;;3.77;100.00;100061.56;4523778;31;20139;-71
2023/01/25 11:08:24;;;;;;;29.05;11.50;;;;;;;3.72;100.00;100059.16;4522799;31;20091;-71
2023/01/25 11:10:52;;;;;;;24.25;10.85;;;;;;;3.85;100.00;100056.94;4522360;31;20103;-70
2023/01/25 11:13:27;;;;;;;26.85;11.07;;;;;;;3.85;100.00;100050.00;4510570;31;20127;-72
2023/01/25 11:16:12;;;;;;;27.55;10.82;;;;;;;3.77;100.00;100046.03;4517906;31;20756;-71
2023/01/25 11:18:50;;;;;;;27.95;11.07;;;;;;;3.71;100.00;100045.38;4526448;31;20127;-72
2023/01/25 11:21:24;;;;;;;23.87;9.68;;;;;;;3.85;100.00;100043.97;4529441;31;20122;-72
2023/01/25 11:24:02;;;;;;;26.27;11.68;;;;;;;3.93;100.00;100038.47;4528327;31;20107;-71
2023/01/25 11:26:35;;;;;;;23.77;10.38;;;;;;;3.99;100.00;100026.09;4522554;31;20211;-71
2023/01/25 11:29:11;;;;;;;24.65;10.38;;;;;;;3.58;100.00;100028.62;4528755;31;20115;-72
2023/01/25 11:31:40;;;;;;;23.67;10.63;;;;;;;3.65;100.00;100024.03;4521387;31;20109;-71
2023/01/25 11:34:14;;;;;;;21.08;10.68;;;;;;;3.67;100.00;100025.66;4522218;31;20146;-72